sensor_id;sensor_type;location;lat;lon;timestamp;P1;durP1;ratioP1;P2;durP2;ratioP2
13461;SDS011;6803;45.264;5.468;2022-11-20T00:02:26;2.93;;;2.10;;
13461;SDS011;6803;45.264;5.468;2022-11-20T00:04:57;3.30;;;2.20;;
13461;SDS011;6803;45.264;5.468;2022-11-20T00:07:27;4.07;;;2.00;;
13461;SDS011;6803;45.264;5.468;2022-11-20T00:09:58;4.83;;;2.33;;
13461;SDS011;6803;45.264;5.468;2022-11-20T00:12:29;3.03;;;2.10;;
13461;SDS011;6803;45.264;5.468;2022-11-20T00:15:00;4.90;;;2.43;;
13461;SDS011;6803;45.264;5.468;2022-11-20T00:17:31;2.67;;;2.00;;
13461;SDS011;6803;45.264;5.468;2022-11-20T00:20:01;3.67;;;2.10;;
13461;SDS011;6803;45.264;5.468;2022-11-20T00:22:33;4.83;;;2.10;;
13461;SDS011;6803;45.264;5.468;2022-11-20T00:25:04;2.80;;;2.03;;
13461;SDS011;6803;45.264;5.468;2022-11-20T00:27:35;2.13;;;1.93;;
13461;SDS011;6803;45.264;5.468;2022-11-20T00:30:07;7.73;;;2.50;;
13461;SDS011;6803;45.264;5.468;2022-11-20T00:32:41;3.73;;;2.40;;
13461;SDS011;6803;45.264;5.468;2022-11-20T00:35:11;3.10;;;2.20;;
13461;SDS011;6803;45.264;5.468;2022-11-20T00:37:42;3.53;;;2.30;;
13461;SDS011;6803;45.264;5.468;2022-11-20T00:40:13;3.37;;;2.50;;
13461;SDS011;6803;45.264;5.468;2022-11-20T00:42:44;3.47;;;2.37;;
13461;SDS011;6803;45.264;5.468;2022-11-20T00:45:15;3.20;;;1.90;;
13461;SDS011;6803;45.264;5.468;2022-11-20T00:47:45;3.93;;;2.30;;
13461;SDS011;6803;45.264;5.468;2022-11-20T00:50:16;3.53;;;2.60;;
13461;SDS011;6803;45.264;5.468;2022-11-20T00:52:46;5.20;;;2.30;;
13461;SDS011;6803;45.264;5.468;2022-11-20T00:55:17;3.97;;;2.40;;
13461;SDS011;6803;45.264;5.468;2022-11-20T00:57:47;4.17;;;2.40;;
13461;SDS011;6803;45.264;5.468;2022-11-20T01:00:18;3.37;;;2.27;;
13461;SDS011;6803;45.264;5.468;2022-11-20T01:02:49;2.63;;;2.30;;
13461;SDS011;6803;45.264;5.468;2022-11-20T01:05:19;3.07;;;2.00;;
13461;SDS011;6803;45.264;5.468;2022-11-20T01:07:50;5.20;;;3.13;;
13461;SDS011;6803;45.264;5.468;2022-11-20T01:10:21;7.57;;;2.90;;
13461;SDS011;6803;45.264;5.468;2022-11-20T01:12:51;4.23;;;2.77;;
13461;SDS011;6803;45.264;5.468;2022-11-20T01:15:40;3.47;;;2.57;;
13461;SDS011;6803;45.264;5.468;2022-11-20T01:18:11;4.67;;;3.13;;
13461;SDS011;6803;45.264;5.468;2022-11-20T01:20:42;7.07;;;2.73;;
13461;SDS011;6803;45.264;5.468;2022-11-20T01:23:12;4.30;;;2.50;;
13461;SDS011;6803;45.264;5.468;2022-11-20T01:25:43;4.27;;;2.60;;
13461;SDS011;6803;45.264;5.468;2022-11-20T01:28:13;9.53;;;2.87;;
13461;SDS011;6803;45.264;5.468;2022-11-20T01:30:44;5.90;;;2.90;;
13461;SDS011;6803;45.264;5.468;2022-11-20T01:33:14;6.93;;;2.97;;
13461;SDS011;6803;45.264;5.468;2022-11-20T01:35:45;3.63;;;2.60;;
13461;SDS011;6803;45.264;5.468;2022-11-20T01:38:16;4.73;;;2.97;;
13461;SDS011;6803;45.264;5.468;2022-11-20T01:40:54;4.87;;;2.90;;
13461;SDS011;6803;45.264;5.468;2022-11-20T01:43:25;4.57;;;2.60;;
13461;SDS011;6803;45.264;5.468;2022-11-20T01:46:00;4.07;;;2.70;;
13461;SDS011;6803;45.264;5.468;2022-11-20T01:48:35;3.37;;;2.43;;
13461;SDS011;6803;45.264;5.468;2022-11-20T01:51:10;6.27;;;3.00;;
13461;SDS011;6803;45.264;5.468;2022-11-20T01:53:43;5.60;;;3.03;;
13461;SDS011;6803;45.264;5.468;2022-11-20T01:56:15;4.30;;;2.77;;
13461;SDS011;6803;45.264;5.468;2022-11-20T01:58:47;4.10;;;3.00;;
13461;SDS011;6803;45.264;5.468;2022-11-20T02:01:20;3.17;;;2.87;;
13461;SDS011;6803;45.264;5.468;2022-11-20T02:03:51;3.77;;;2.87;;
13461;SDS011;6803;45.264;5.468;2022-11-20T02:06:23;4.77;;;2.73;;
13461;SDS011;6803;45.264;5.468;2022-11-20T02:08:57;4.33;;;2.83;;
13461;SDS011;6803;45.264;5.468;2022-11-20T02:11:27;4.87;;;2.80;;
13461;SDS011;6803;45.264;5.468;2022-11-20T02:14:00;5.10;;;2.93;;
13461;SDS011;6803;45.264;5.468;2022-11-20T02:16:31;3.73;;;2.70;;
13461;SDS011;6803;45.264;5.468;2022-11-20T02:19:06;3.67;;;2.50;;
13461;SDS011;6803;45.264;5.468;2022-11-20T02:21:39;3.73;;;2.80;;
13461;SDS011;6803;45.264;5.468;2022-11-20T02:24:12;5.40;;;2.90;;
13461;SDS011;6803;45.264;5.468;2022-11-20T02:26:46;4.13;;;2.17;;
13461;SDS011;6803;45.264;5.468;2022-11-20T02:29:19;2.60;;;2.40;;
13461;SDS011;6803;45.264;5.468;2022-11-20T02:34:48;4.73;;;2.37;;
13461;SDS011;6803;45.264;5.468;2022-11-20T02:37:18;4.57;;;2.50;;
13461;SDS011;6803;45.264;5.468;2022-11-20T02:39:50;7.60;;;2.50;;
13461;SDS011;6803;45.264;5.468;2022-11-20T02:42:21;3.00;;;2.40;;
13461;SDS011;6803;45.264;5.468;2022-11-20T02:44:52;4.80;;;2.77;;
13461;SDS011;6803;45.264;5.468;2022-11-20T02:47:23;3.83;;;2.63;;
13461;SDS011;6803;45.264;5.468;2022-11-20T02:49:53;3.07;;;1.83;;
13461;SDS011;6803;45.264;5.468;2022-11-20T02:52:24;4.40;;;2.03;;
13461;SDS011;6803;45.264;5.468;2022-11-20T02:54:55;3.00;;;2.13;;
13461;SDS011;6803;45.264;5.468;2022-11-20T02:57:25;2.73;;;2.03;;
13461;SDS011;6803;45.264;5.468;2022-11-20T02:59:56;3.77;;;2.20;;
13461;SDS011;6803;45.264;5.468;2022-11-20T03:02:28;3.27;;;1.90;;
13461;SDS011;6803;45.264;5.468;2022-11-20T03:04:59;2.00;;;1.80;;
13461;SDS011;6803;45.264;5.468;2022-11-20T03:07:30;5.77;;;2.00;;
13461;SDS011;6803;45.264;5.468;2022-11-20T03:10:01;3.40;;;1.87;;
13461;SDS011;6803;45.264;5.468;2022-11-20T03:12:32;4.60;;;2.00;;
13461;SDS011;6803;45.264;5.468;2022-11-20T03:15:04;2.90;;;1.83;;
13461;SDS011;6803;45.264;5.468;2022-11-20T03:17:35;3.47;;;2.13;;
13461;SDS011;6803;45.264;5.468;2022-11-20T03:20:08;5.00;;;2.10;;
13461;SDS011;6803;45.264;5.468;2022-11-20T03:22:40;2.20;;;1.60;;
13461;SDS011;6803;45.264;5.468;2022-11-20T03:25:10;3.77;;;1.93;;
13461;SDS011;6803;45.264;5.468;2022-11-20T03:27:41;2.33;;;1.80;;
13461;SDS011;6803;45.264;5.468;2022-11-20T03:30:12;6.07;;;2.10;;
13461;SDS011;6803;45.264;5.468;2022-11-20T03:32:43;2.80;;;1.90;;
13461;SDS011;6803;45.264;5.468;2022-11-20T03:35:15;4.60;;;1.93;;
13461;SDS011;6803;45.264;5.468;2022-11-20T03:37:46;4.93;;;2.30;;
13461;SDS011;6803;45.264;5.468;2022-11-20T03:40:17;2.60;;;1.67;;
13461;SDS011;6803;45.264;5.468;2022-11-20T03:42:48;3.10;;;2.33;;
13461;SDS011;6803;45.264;5.468;2022-11-20T03:45:18;3.23;;;2.27;;
13461;SDS011;6803;45.264;5.468;2022-11-20T03:47:49;3.27;;;2.00;;
13461;SDS011;6803;45.264;5.468;2022-11-20T03:50:20;2.77;;;2.03;;
13461;SDS011;6803;45.264;5.468;2022-11-20T03:52:51;3.57;;;2.30;;
13461;SDS011;6803;45.264;5.468;2022-11-20T03:55:21;5.97;;;2.73;;
13461;SDS011;6803;45.264;5.468;2022-11-20T03:57:52;2.63;;;2.00;;
13461;SDS011;6803;45.264;5.468;2022-11-20T04:00:22;2.80;;;2.10;;
13461;SDS011;6803;45.264;5.468;2022-11-20T04:02:53;3.47;;;2.20;;
13461;SDS011;6803;45.264;5.468;2022-11-20T04:05:26;3.40;;;2.13;;
13461;SDS011;6803;45.264;5.468;2022-11-20T04:07:57;4.47;;;2.30;;
13461;SDS011;6803;45.264;5.468;2022-11-20T04:10:27;4.33;;;2.57;;
13461;SDS011;6803;45.264;5.468;2022-11-20T04:12:58;4.07;;;2.23;;
13461;SDS011;6803;45.264;5.468;2022-11-20T04:15:29;2.50;;;2.00;;
13461;SDS011;6803;45.264;5.468;2022-11-20T04:18:01;2.67;;;2.17;;
13461;SDS011;6803;45.264;5.468;2022-11-20T04:20:32;7.77;;;2.37;;
13461;SDS011;6803;45.264;5.468;2022-11-20T04:23:02;2.60;;;2.20;;
13461;SDS011;6803;45.264;5.468;2022-11-20T04:25:33;4.67;;;2.70;;
13461;SDS011;6803;45.264;5.468;2022-11-20T04:28:04;5.10;;;2.67;;
13461;SDS011;6803;45.264;5.468;2022-11-20T04:30:34;4.17;;;2.67;;
13461;SDS011;6803;45.264;5.468;2022-11-20T04:33:05;3.93;;;2.80;;
13461;SDS011;6803;45.264;5.468;2022-11-20T04:35:36;2.57;;;2.30;;
13461;SDS011;6803;45.264;5.468;2022-11-20T04:38:07;5.20;;;2.67;;
13461;SDS011;6803;45.264;5.468;2022-11-20T04:40:37;3.50;;;2.63;;
13461;SDS011;6803;45.264;5.468;2022-11-20T04:43:08;3.00;;;2.37;;
13461;SDS011;6803;45.264;5.468;2022-11-20T04:45:38;3.00;;;2.37;;
13461;SDS011;6803;45.264;5.468;2022-11-20T04:48:09;2.87;;;2.43;;
13461;SDS011;6803;45.264;5.468;2022-11-20T04:50:40;3.50;;;2.33;;
13461;SDS011;6803;45.264;5.468;2022-11-20T04:53:11;3.47;;;2.50;;
13461;SDS011;6803;45.264;5.468;2022-11-20T04:55:41;4.27;;;2.60;;
13461;SDS011;6803;45.264;5.468;2022-11-20T04:58:12;3.30;;;2.60;;
13461;SDS011;6803;45.264;5.468;2022-11-20T05:00:43;3.40;;;2.40;;
13461;SDS011;6803;45.264;5.468;2022-11-20T05:03:14;5.57;;;2.43;;
13461;SDS011;6803;45.264;5.468;2022-11-20T05:05:44;2.77;;;2.43;;
13461;SDS011;6803;45.264;5.468;2022-11-20T05:08:15;3.50;;;2.17;;
13461;SDS011;6803;45.264;5.468;2022-11-20T05:10:45;6.63;;;2.80;;
13461;SDS011;6803;45.264;5.468;2022-11-20T05:13:16;5.63;;;2.83;;
13461;SDS011;6803;45.264;5.468;2022-11-20T05:15:47;3.40;;;2.70;;
13461;SDS011;6803;45.264;5.468;2022-11-20T05:18:17;4.43;;;2.93;;
13461;SDS011;6803;45.264;5.468;2022-11-20T05:20:54;4.37;;;2.57;;
13461;SDS011;6803;45.264;5.468;2022-11-20T05:23:25;4.53;;;3.13;;
13461;SDS011;6803;45.264;5.468;2022-11-20T05:25:58;2.77;;;2.40;;
13461;SDS011;6803;45.264;5.468;2022-11-20T05:28:29;6.70;;;2.97;;
13461;SDS011;6803;45.264;5.468;2022-11-20T05:31:07;3.07;;;2.77;;
13461;SDS011;6803;45.264;5.468;2022-11-20T05:33:39;2.53;;;2.27;;
13461;SDS011;6803;45.264;5.468;2022-11-20T05:36:12;7.63;;;3.10;;
13461;SDS011;6803;45.264;5.468;2022-11-20T05:38:43;5.07;;;2.67;;
13461;SDS011;6803;45.264;5.468;2022-11-20T05:41:17;4.13;;;2.83;;
13461;SDS011;6803;45.264;5.468;2022-11-20T05:43:49;2.90;;;2.37;;
13461;SDS011;6803;45.264;5.468;2022-11-20T05:46:20;6.20;;;2.50;;
13461;SDS011;6803;45.264;5.468;2022-11-20T05:48:53;4.90;;;2.83;;
13461;SDS011;6803;45.264;5.468;2022-11-20T05:51:24;4.47;;;2.50;;
13461;SDS011;6803;45.264;5.468;2022-11-20T05:53:56;5.43;;;2.90;;
13461;SDS011;6803;45.264;5.468;2022-11-20T05:56:27;6.10;;;2.70;;
13461;SDS011;6803;45.264;5.468;2022-11-20T05:58:58;3.57;;;2.70;;
13461;SDS011;6803;45.264;5.468;2022-11-20T06:01:28;4.27;;;3.10;;
13461;SDS011;6803;45.264;5.468;2022-11-20T06:03:59;7.40;;;3.00;;
13461;SDS011;6803;45.264;5.468;2022-11-20T06:06:30;6.87;;;3.27;;
13461;SDS011;6803;45.264;5.468;2022-11-20T06:09:00;5.57;;;2.87;;
13461;SDS011;6803;45.264;5.468;2022-11-20T06:11:31;4.87;;;2.30;;
13461;SDS011;6803;45.264;5.468;2022-11-20T06:14:01;10.10;;;3.30;;
13461;SDS011;6803;45.264;5.468;2022-11-20T06:16:32;7.57;;;3.10;;
13461;SDS011;6803;45.264;5.468;2022-11-20T06:19:03;5.23;;;2.70;;
13461;SDS011;6803;45.264;5.468;2022-11-20T06:21:33;5.23;;;3.10;;
13461;SDS011;6803;45.264;5.468;2022-11-20T06:24:04;3.33;;;2.90;;
13461;SDS011;6803;45.264;5.468;2022-11-20T06:26:37;3.23;;;2.73;;
13461;SDS011;6803;45.264;5.468;2022-11-20T06:29:08;3.87;;;3.07;;
13461;SDS011;6803;45.264;5.468;2022-11-20T06:31:38;6.33;;;2.87;;
13461;SDS011;6803;45.264;5.468;2022-11-20T06:34:10;4.23;;;2.83;;
13461;SDS011;6803;45.264;5.468;2022-11-20T06:36:40;2.93;;;2.60;;
13461;SDS011;6803;45.264;5.468;2022-11-20T06:39:11;4.40;;;3.17;;
13461;SDS011;6803;45.264;5.468;2022-11-20T06:41:41;3.40;;;2.70;;
13461;SDS011;6803;45.264;5.468;2022-11-20T06:44:12;8.80;;;3.20;;
13461;SDS011;6803;45.264;5.468;2022-11-20T06:46:43;6.00;;;3.50;;
13461;SDS011;6803;45.264;5.468;2022-11-20T06:49:13;4.57;;;3.47;;
13461;SDS011;6803;45.264;5.468;2022-11-20T06:51:44;5.23;;;3.17;;
13461;SDS011;6803;45.264;5.468;2022-11-20T06:54:15;4.83;;;3.80;;
13461;SDS011;6803;45.264;5.468;2022-11-20T06:56:47;7.30;;;3.40;;
13461;SDS011;6803;45.264;5.468;2022-11-20T06:59:17;6.60;;;3.13;;
13461;SDS011;6803;45.264;5.468;2022-11-20T07:01:49;5.77;;;3.37;;
13461;SDS011;6803;45.264;5.468;2022-11-20T07:04:20;3.23;;;2.90;;
13461;SDS011;6803;45.264;5.468;2022-11-20T07:06:50;4.03;;;3.00;;
13461;SDS011;6803;45.264;5.468;2022-11-20T07:09:21;6.57;;;3.40;;
13461;SDS011;6803;45.264;5.468;2022-11-20T07:11:52;3.93;;;3.43;;
13461;SDS011;6803;45.264;5.468;2022-11-20T07:14:22;4.93;;;4.07;;
13461;SDS011;6803;45.264;5.468;2022-11-20T07:16:53;3.73;;;3.37;;
13461;SDS011;6803;45.264;5.468;2022-11-20T07:19:24;6.30;;;3.83;;
13461;SDS011;6803;45.264;5.468;2022-11-20T07:21:54;9.00;;;3.80;;
13461;SDS011;6803;45.264;5.468;2022-11-20T07:24:25;4.63;;;3.47;;
13461;SDS011;6803;45.264;5.468;2022-11-20T07:26:55;4.80;;;3.97;;
13461;SDS011;6803;45.264;5.468;2022-11-20T07:29:26;14.37;;;4.50;;
13461;SDS011;6803;45.264;5.468;2022-11-20T07:31:56;11.27;;;4.20;;
13461;SDS011;6803;45.264;5.468;2022-11-20T07:34:27;12.93;;;4.20;;
13461;SDS011;6803;45.264;5.468;2022-11-20T07:36:58;7.60;;;4.20;;
13461;SDS011;6803;45.264;5.468;2022-11-20T07:39:30;9.83;;;4.17;;
13461;SDS011;6803;45.264;5.468;2022-11-20T07:42:00;6.37;;;3.70;;
13461;SDS011;6803;45.264;5.468;2022-11-20T07:44:31;5.43;;;3.57;;
13461;SDS011;6803;45.264;5.468;2022-11-20T07:47:02;5.90;;;4.13;;
13461;SDS011;6803;45.264;5.468;2022-11-20T07:49:33;9.83;;;3.90;;
13461;SDS011;6803;45.264;5.468;2022-11-20T07:52:03;11.20;;;3.67;;
13461;SDS011;6803;45.264;5.468;2022-11-20T07:54:34;8.13;;;3.73;;
13461;SDS011;6803;45.264;5.468;2022-11-20T07:57:05;3.83;;;3.33;;
13461;SDS011;6803;45.264;5.468;2022-11-20T07:59:35;5.80;;;3.40;;
13461;SDS011;6803;45.264;5.468;2022-11-20T08:02:09;5.60;;;3.83;;
13461;SDS011;6803;45.264;5.468;2022-11-20T08:04:41;3.30;;;3.00;;
13461;SDS011;6803;45.264;5.468;2022-11-20T08:07:11;5.13;;;4.00;;
13461;SDS011;6803;45.264;5.468;2022-11-20T08:09:42;5.10;;;3.40;;
13461;SDS011;6803;45.264;5.468;2022-11-20T08:12:16;7.53;;;4.30;;
13461;SDS011;6803;45.264;5.468;2022-11-20T08:15:08;8.20;;;3.90;;
13461;SDS011;6803;45.264;5.468;2022-11-20T08:17:40;7.73;;;4.73;;
13461;SDS011;6803;45.264;5.468;2022-11-20T08:20:12;5.90;;;4.67;;
13461;SDS011;6803;45.264;5.468;2022-11-20T08:22:43;8.27;;;4.57;;
13461;SDS011;6803;45.264;5.468;2022-11-20T08:25:14;9.43;;;4.67;;
13461;SDS011;6803;45.264;5.468;2022-11-20T08:27:45;12.17;;;5.23;;
13461;SDS011;6803;45.264;5.468;2022-11-20T08:30:15;9.37;;;6.67;;
13461;SDS011;6803;45.264;5.468;2022-11-20T08:32:46;8.40;;;6.73;;
13461;SDS011;6803;45.264;5.468;2022-11-20T08:35:18;6.07;;;4.97;;
13461;SDS011;6803;45.264;5.468;2022-11-20T08:37:50;9.23;;;5.00;;
13461;SDS011;6803;45.264;5.468;2022-11-20T08:40:21;4.77;;;4.27;;
13461;SDS011;6803;45.264;5.468;2022-11-20T08:42:53;6.57;;;4.10;;
13461;SDS011;6803;45.264;5.468;2022-11-20T08:45:24;10.50;;;6.07;;
13461;SDS011;6803;45.264;5.468;2022-11-20T08:48:00;5.90;;;3.97;;
13461;SDS011;6803;45.264;5.468;2022-11-20T08:50:32;4.40;;;3.50;;
13461;SDS011;6803;45.264;5.468;2022-11-20T08:53:03;5.23;;;3.50;;
13461;SDS011;6803;45.264;5.468;2022-11-20T08:55:33;7.67;;;4.20;;
13461;SDS011;6803;45.264;5.468;2022-11-20T08:58:04;4.03;;;2.80;;
13461;SDS011;6803;45.264;5.468;2022-11-20T09:00:35;6.97;;;3.03;;
13461;SDS011;6803;45.264;5.468;2022-11-20T09:03:06;4.10;;;2.90;;
13461;SDS011;6803;45.264;5.468;2022-11-20T09:05:36;5.60;;;3.00;;
13461;SDS011;6803;45.264;5.468;2022-11-20T09:08:07;5.30;;;2.80;;
13461;SDS011;6803;45.264;5.468;2022-11-20T09:10:38;6.83;;;3.13;;
13461;SDS011;6803;45.264;5.468;2022-11-20T09:13:08;4.70;;;3.00;;
13461;SDS011;6803;45.264;5.468;2022-11-20T09:15:40;4.07;;;2.70;;
13461;SDS011;6803;45.264;5.468;2022-11-20T09:18:10;3.53;;;2.60;;
13461;SDS011;6803;45.264;5.468;2022-11-20T09:20:41;3.57;;;2.50;;
13461;SDS011;6803;45.264;5.468;2022-11-20T09:23:12;5.03;;;2.50;;
13461;SDS011;6803;45.264;5.468;2022-11-20T09:25:43;3.13;;;2.57;;
13461;SDS011;6803;45.264;5.468;2022-11-20T09:28:15;3.17;;;2.67;;
13461;SDS011;6803;45.264;5.468;2022-11-20T09:30:46;3.03;;;2.40;;
13461;SDS011;6803;45.264;5.468;2022-11-20T09:33:17;4.10;;;2.50;;
13461;SDS011;6803;45.264;5.468;2022-11-20T09:35:47;2.83;;;2.10;;
13461;SDS011;6803;45.264;5.468;2022-11-20T09:38:18;5.40;;;2.20;;
13461;SDS011;6803;45.264;5.468;2022-11-20T09:40:50;3.40;;;2.00;;
13461;SDS011;6803;45.264;5.468;2022-11-20T09:43:36;4.83;;;1.93;;
13461;SDS011;6803;45.264;5.468;2022-11-20T09:46:12;2.57;;;2.20;;
13461;SDS011;6803;45.264;5.468;2022-11-20T09:48:57;3.37;;;2.40;;
13461;SDS011;6803;45.264;5.468;2022-11-20T09:51:37;3.90;;;2.03;;
13461;SDS011;6803;45.264;5.468;2022-11-20T09:54:14;3.70;;;2.30;;
13461;SDS011;6803;45.264;5.468;2022-11-20T09:56:48;4.60;;;2.00;;
13461;SDS011;6803;45.264;5.468;2022-11-20T09:59:32;3.40;;;2.00;;
13461;SDS011;6803;45.264;5.468;2022-11-20T10:02:25;3.53;;;1.77;;
13461;SDS011;6803;45.264;5.468;2022-11-20T10:05:02;3.93;;;1.43;;
13461;SDS011;6803;45.264;5.468;2022-11-20T10:07:36;4.37;;;2.00;;
13461;SDS011;6803;45.264;5.468;2022-11-20T10:13:07;3.20;;;1.67;;
13461;SDS011;6803;45.264;5.468;2022-11-20T10:15:47;3.63;;;1.80;;
13461;SDS011;6803;45.264;5.468;2022-11-20T10:18:26;3.57;;;1.70;;
13461;SDS011;6803;45.264;5.468;2022-11-20T10:21:01;2.77;;;1.80;;
13461;SDS011;6803;45.264;5.468;2022-11-20T10:23:40;1.83;;;1.50;;
13461;SDS011;6803;45.264;5.468;2022-11-20T10:26:17;2.33;;;1.33;;
13461;SDS011;6803;45.264;5.468;2022-11-20T10:28:56;2.40;;;1.40;;
13461;SDS011;6803;45.264;5.468;2022-11-20T10:34:14;1.40;;;1.30;;
13461;SDS011;6803;45.264;5.468;2022-11-20T10:36:52;2.03;;;1.60;;
13461;SDS011;6803;45.264;5.468;2022-11-20T10:39:26;4.07;;;1.70;;
13461;SDS011;6803;45.264;5.468;2022-11-20T10:42:02;3.43;;;1.60;;
13461;SDS011;6803;45.264;5.468;2022-11-20T10:44:35;1.73;;;1.57;;
13461;SDS011;6803;45.264;5.468;2022-11-20T10:47:31;5.20;;;1.70;;
13461;SDS011;6803;45.264;5.468;2022-11-20T10:50:03;1.90;;;1.30;;
13461;SDS011;6803;45.264;5.468;2022-11-20T10:52:42;1.37;;;1.10;;
13461;SDS011;6803;45.264;5.468;2022-11-20T10:55:21;2.87;;;1.33;;
13461;SDS011;6803;45.264;5.468;2022-11-20T10:57:58;2.60;;;1.63;;
13461;SDS011;6803;45.264;5.468;2022-11-20T11:00:32;2.33;;;1.37;;
13461;SDS011;6803;45.264;5.468;2022-11-20T11:05:58;2.00;;;1.50;;
13461;SDS011;6803;45.264;5.468;2022-11-20T11:08:38;4.10;;;1.70;;
13461;SDS011;6803;45.264;5.468;2022-11-20T11:11:13;4.30;;;1.57;;
13461;SDS011;6803;45.264;5.468;2022-11-20T11:13:49;1.90;;;1.50;;
13461;SDS011;6803;45.264;5.468;2022-11-20T11:16:21;3.50;;;1.40;;
13461;SDS011;6803;45.264;5.468;2022-11-20T11:19:03;3.80;;;1.73;;
13461;SDS011;6803;45.264;5.468;2022-11-20T11:21:35;4.93;;;2.90;;
13461;SDS011;6803;45.264;5.468;2022-11-20T11:24:15;4.63;;;2.33;;
13461;SDS011;6803;45.264;5.468;2022-11-20T11:26:52;2.67;;;1.77;;
13461;SDS011;6803;45.264;5.468;2022-11-20T11:29:26;2.87;;;2.20;;
13461;SDS011;6803;45.264;5.468;2022-11-20T11:32:06;2.93;;;2.13;;
13461;SDS011;6803;45.264;5.468;2022-11-20T11:34:35;2.33;;;2.00;;
13461;SDS011;6803;45.264;5.468;2022-11-20T11:37:05;3.30;;;1.80;;
13461;SDS011;6803;45.264;5.468;2022-11-20T11:39:36;2.53;;;1.80;;
13461;SDS011;6803;45.264;5.468;2022-11-20T11:42:08;2.33;;;1.43;;
13461;SDS011;6803;45.264;5.468;2022-11-20T11:44:43;1.77;;;1.40;;
13461;SDS011;6803;45.264;5.468;2022-11-20T11:47:29;4.03;;;1.53;;
13461;SDS011;6803;45.264;5.468;2022-11-20T11:50:02;3.23;;;1.43;;
13461;SDS011;6803;45.264;5.468;2022-11-20T11:52:32;2.00;;;1.37;;
13461;SDS011;6803;45.264;5.468;2022-11-20T11:55:03;1.40;;;1.23;;
13461;SDS011;6803;45.264;5.468;2022-11-20T11:57:37;1.87;;;1.20;;
13461;SDS011;6803;45.264;5.468;2022-11-20T12:00:09;3.27;;;1.67;;
13461;SDS011;6803;45.264;5.468;2022-11-20T12:02:42;1.83;;;1.40;;
13461;SDS011;6803;45.264;5.468;2022-11-20T12:05:15;1.90;;;1.50;;
13461;SDS011;6803;45.264;5.468;2022-11-20T12:07:46;1.77;;;1.57;;
13461;SDS011;6803;45.264;5.468;2022-11-20T12:10:18;1.83;;;1.40;;
13461;SDS011;6803;45.264;5.468;2022-11-20T12:12:52;2.87;;;1.37;;
13461;SDS011;6803;45.264;5.468;2022-11-20T12:15:30;2.83;;;1.50;;
13461;SDS011;6803;45.264;5.468;2022-11-20T12:18:09;1.50;;;1.30;;
13461;SDS011;6803;45.264;5.468;2022-11-20T12:20:45;2.03;;;1.20;;
13461;SDS011;6803;45.264;5.468;2022-11-20T12:23:21;1.43;;;1.30;;
13461;SDS011;6803;45.264;5.468;2022-11-20T12:25:56;3.47;;;1.50;;
13461;SDS011;6803;45.264;5.468;2022-11-20T12:28:33;3.17;;;1.67;;
13461;SDS011;6803;45.264;5.468;2022-11-20T12:31:13;2.67;;;1.70;;
13461;SDS011;6803;45.264;5.468;2022-11-20T12:33:51;2.50;;;1.50;;
13461;SDS011;6803;45.264;5.468;2022-11-20T12:36:32;2.80;;;1.57;;
13461;SDS011;6803;45.264;5.468;2022-11-20T12:39:09;2.83;;;1.77;;
13461;SDS011;6803;45.264;5.468;2022-11-20T12:42:00;2.30;;;1.37;;
13461;SDS011;6803;45.264;5.468;2022-11-20T12:45:06;1.63;;;1.37;;
13461;SDS011;6803;45.264;5.468;2022-11-20T12:47:54;2.83;;;1.50;;
13461;SDS011;6803;45.264;5.468;2022-11-20T12:50:30;1.70;;;1.40;;
13461;SDS011;6803;45.264;5.468;2022-11-20T12:55:58;2.33;;;1.27;;
13461;SDS011;6803;45.264;5.468;2022-11-20T12:58:33;2.57;;;1.60;;
13461;SDS011;6803;45.264;5.468;2022-11-20T13:01:13;2.10;;;1.43;;
13461;SDS011;6803;45.264;5.468;2022-11-20T13:03:43;2.20;;;1.37;;
13461;SDS011;6803;45.264;5.468;2022-11-20T13:06:17;2.67;;;1.43;;
13461;SDS011;6803;45.264;5.468;2022-11-20T13:08:49;1.63;;;1.40;;
13461;SDS011;6803;45.264;5.468;2022-11-20T13:11:25;2.13;;;1.53;;
13461;SDS011;6803;45.264;5.468;2022-11-20T13:16:57;2.17;;;1.87;;
13461;SDS011;6803;45.264;5.468;2022-11-20T13:19:28;1.93;;;1.63;;
13461;SDS011;6803;45.264;5.468;2022-11-20T13:21:58;4.57;;;1.70;;
13461;SDS011;6803;45.264;5.468;2022-11-20T13:24:28;1.97;;;1.77;;
13461;SDS011;6803;45.264;5.468;2022-11-20T13:27:05;3.20;;;1.80;;
13461;SDS011;6803;45.264;5.468;2022-11-20T13:29:36;2.10;;;1.80;;
13461;SDS011;6803;45.264;5.468;2022-11-20T13:32:12;2.37;;;1.77;;
13461;SDS011;6803;45.264;5.468;2022-11-20T13:34:53;3.73;;;1.77;;
13461;SDS011;6803;45.264;5.468;2022-11-20T13:37:26;1.87;;;1.63;;
13461;SDS011;6803;45.264;5.468;2022-11-20T13:40:10;3.33;;;2.03;;
13461;SDS011;6803;45.264;5.468;2022-11-20T13:42:45;1.83;;;1.60;;
13461;SDS011;6803;45.264;5.468;2022-11-20T13:45:22;2.37;;;1.80;;
13461;SDS011;6803;45.264;5.468;2022-11-20T13:47:55;3.67;;;1.60;;
13461;SDS011;6803;45.264;5.468;2022-11-20T13:50:31;3.67;;;1.83;;
13461;SDS011;6803;45.264;5.468;2022-11-20T13:53:01;2.33;;;1.60;;
13461;SDS011;6803;45.264;5.468;2022-11-20T13:55:31;1.90;;;1.63;;
13461;SDS011;6803;45.264;5.468;2022-11-20T13:58:06;3.00;;;1.87;;
13461;SDS011;6803;45.264;5.468;2022-11-20T14:00:43;2.23;;;1.60;;
13461;SDS011;6803;45.264;5.468;2022-11-20T14:03:16;2.57;;;1.60;;
13461;SDS011;6803;45.264;5.468;2022-11-20T14:05:59;2.53;;;1.70;;
13461;SDS011;6803;45.264;5.468;2022-11-20T14:08:21;1.90;;;1.63;;
13461;SDS011;6803;45.264;5.468;2022-11-20T14:10:50;2.40;;;1.80;;
13461;SDS011;6803;45.264;5.468;2022-11-20T14:13:20;3.07;;;1.97;;
13461;SDS011;6803;45.264;5.468;2022-11-20T14:15:56;2.20;;;1.97;;
13461;SDS011;6803;45.264;5.468;2022-11-20T14:18:21;2.07;;;1.50;;
13461;SDS011;6803;45.264;5.468;2022-11-20T14:20:50;1.93;;;1.63;;
13461;SDS011;6803;45.264;5.468;2022-11-20T14:23:26;2.40;;;1.80;;
13461;SDS011;6803;45.264;5.468;2022-11-20T14:25:57;3.30;;;1.47;;
13461;SDS011;6803;45.264;5.468;2022-11-20T14:28:28;3.13;;;2.17;;
13461;SDS011;6803;45.264;5.468;2022-11-20T14:30:57;2.93;;;1.83;;
13461;SDS011;6803;45.264;5.468;2022-11-20T14:33:27;1.93;;;1.40;;
13461;SDS011;6803;45.264;5.468;2022-11-20T14:35:57;3.13;;;1.60;;
13461;SDS011;6803;45.264;5.468;2022-11-20T14:38:27;1.53;;;1.30;;
13461;SDS011;6803;45.264;5.468;2022-11-20T14:41:06;1.93;;;1.70;;
13461;SDS011;6803;45.264;5.468;2022-11-20T14:43:35;1.67;;;1.33;;
13461;SDS011;6803;45.264;5.468;2022-11-20T14:46:07;4.50;;;1.50;;
13461;SDS011;6803;45.264;5.468;2022-11-20T14:48:38;3.13;;;1.67;;
13461;SDS011;6803;45.264;5.468;2022-11-20T14:51:09;2.13;;;1.70;;
13461;SDS011;6803;45.264;5.468;2022-11-20T14:53:39;2.37;;;1.23;;
13461;SDS011;6803;45.264;5.468;2022-11-20T14:56:08;2.73;;;1.30;;
13461;SDS011;6803;45.264;5.468;2022-11-20T14:58:38;1.60;;;1.50;;
13461;SDS011;6803;45.264;5.468;2022-11-20T15:01:11;2.10;;;1.53;;
13461;SDS011;6803;45.264;5.468;2022-11-20T15:03:41;1.53;;;1.40;;
13461;SDS011;6803;45.264;5.468;2022-11-20T15:06:11;2.27;;;1.20;;
13461;SDS011;6803;45.264;5.468;2022-11-20T15:08:50;2.80;;;1.50;;
13461;SDS011;6803;45.264;5.468;2022-11-20T15:11:29;1.40;;;1.30;;
13461;SDS011;6803;45.264;5.468;2022-11-20T15:13:53;4.63;;;1.43;;
13461;SDS011;6803;45.264;5.468;2022-11-20T15:16:23;1.50;;;1.37;;
13461;SDS011;6803;45.264;5.468;2022-11-20T15:18:54;2.23;;;1.70;;
13461;SDS011;6803;45.264;5.468;2022-11-20T15:21:23;3.23;;;1.30;;
13461;SDS011;6803;45.264;5.468;2022-11-20T15:23:54;4.13;;;1.67;;
13461;SDS011;6803;45.264;5.468;2022-11-20T15:26:24;1.97;;;1.40;;
13461;SDS011;6803;45.264;5.468;2022-11-20T15:28:54;3.80;;;1.50;;
13461;SDS011;6803;45.264;5.468;2022-11-20T15:31:24;2.30;;;1.33;;
13461;SDS011;6803;45.264;5.468;2022-11-20T15:33:53;3.37;;;1.70;;
13461;SDS011;6803;45.264;5.468;2022-11-20T15:36:23;2.70;;;1.60;;
13461;SDS011;6803;45.264;5.468;2022-11-20T15:38:52;2.73;;;1.60;;
13461;SDS011;6803;45.264;5.468;2022-11-20T15:41:22;1.57;;;1.47;;
13461;SDS011;6803;45.264;5.468;2022-11-20T15:43:52;2.50;;;1.70;;
13461;SDS011;6803;45.264;5.468;2022-11-20T15:46:23;3.10;;;1.63;;
13461;SDS011;6803;45.264;5.468;2022-11-20T15:48:54;3.67;;;2.03;;
13461;SDS011;6803;45.264;5.468;2022-11-20T15:51:26;3.03;;;1.87;;